Time;durP1;ratioP1;P1;durP2;ratioP2;P2;SDS_P1;SDS_P2;PMS_P1;PMS_P2;Temp;Humidity;BMP_temperature;BMP_pressure;BME280_temperature;BME280_humidity;BME280_pressure;Samples;Min_cycle;Max_cycle;Signal;HPM_P1;HPM_P2
2023/11/14 00:01:28;;;;;;;1.85;0.70;;;;;;;2.93;76.42;100245.72;4990395;28;20756;-70
2023/11/14 00:03:55;;;;;;;1.63;0.90;;;;;;;2.95;76.09;100239.69;4987233;28;20423;-70
2023/11/14 00:06:22;;;;;;;4.15;0.68;;;;;;;2.93;76.45;100230.25;4989271;28;20061;-70
2023/11/14 00:08:49;;;;;;;1.55;0.77;;;;;;;2.94;76.49;100228.53;4988968;28;20064;-70
2023/11/14 00:11:16;;;;;;;3.30;0.90;;;;;;;2.95;76.21;100232.81;4986784;28;20120;-70
2023/11/14 00:13:43;;;;;;;1.55;0.98;;;;;;;2.96;76.36;100231.09;4984780;28;20480;-70
2023/11/14 00:16:11;;;;;;;1.58;0.70;;;;;;;2.93;76.33;100222.50;4986499;28;20125;-70
2023/11/14 00:18:38;;;;;;;1.25;0.60;;;;;;;2.96;76.13;100231.09;4986811;28;20486;-70
2023/11/14 00:21:05;;;;;;;1.92;0.63;;;;;;;2.96;76.40;100225.94;4988778;28;20128;-69
2023/11/14 00:23:32;;;;;;;2.70;0.68;;;;;;;2.96;76.53;100225.94;4986974;28;20141;-70
2023/11/14 00:25:59;;;;;;;0.90;0.50;;;;;;;2.96;76.52;100226.81;4990043;28;20074;-70
2023/11/14 00:28:26;;;;;;;2.08;0.70;;;;;;;2.98;76.62;100224.22;4988087;28;20058;-69
2023/11/14 00:30:53;;;;;;;2.13;0.88;;;;;;;2.98;76.35;100219.06;4989993;28;20475;-69
2023/11/14 00:33:21;;;;;;;4.22;0.80;;;;;;;2.98;76.66;100208.75;4986765;28;20056;-70
2023/11/14 00:35:48;;;;;;;0.95;0.70;;;;;;;2.98;76.43;100208.75;4988425;28;20050;-70
2023/11/14 00:38:15;;;;;;;1.15;0.82;;;;;;;2.99;76.41;100200.13;4983553;28;20500;-70
2023/11/14 00:40:43;;;;;;;1.40;0.50;;;;;;;3.00;76.49;100197.56;4989651;28;20116;-70
2023/11/14 00:43:09;;;;;;;1.60;0.68;;;;;;;3.00;76.64;100191.56;4992194;28;20057;-78
2023/11/14 00:45:37;;;;;;;3.72;0.55;;;;;;;3.00;76.73;100189.84;4993193;28;20046;-78
2023/11/14 00:48:04;;;;;;;1.10;0.60;;;;;;;2.98;76.61;100181.22;4992077;28;20043;-78
2023/11/14 00:50:33;;;;;;;0.70;0.60;;;;;;;3.00;76.77;100176.06;4986861;28;20454;-78
2023/11/14 00:53:00;;;;;;;1.08;0.70;;;;;;;2.99;76.82;100179.50;4990537;28;20046;-74
2023/11/14 00:55:27;;;;;;;1.33;0.50;;;;;;;3.01;76.63;100180.38;4985639;28;20043;-74
2023/11/14 00:57:54;;;;;;;1.38;0.73;;;;;;;3.01;76.85;100180.38;4987992;28;20056;-74
2023/11/14 01:00:21;;;;;;;1.42;0.55;;;;;;;3.02;76.79;100187.28;4988524;28;20042;-73
2023/11/14 01:02:50;;;;;;;0.75;0.47;;;;;;;3.01;76.72;100185.53;4988728;28;20860;-74
2023/11/14 01:05:17;;;;;;;0.82;0.40;;;;;;;3.01;76.84;100186.38;4987115;28;20703;-74
2023/11/14 01:07:45;;;;;;;1.20;0.50;;;;;;;2.99;76.98;100174.34;4989572;28;20100;-74
2023/11/14 01:10:14;;;;;;;0.70;0.50;;;;;;;3.01;77.01;100180.38;4988823;28;20066;-74
2023/11/14 01:12:40;;;;;;;0.80;0.50;;;;;;;3.02;76.61;100184.69;4988369;28;20054;-74
2023/11/14 01:15:08;;;;;;;1.33;0.60;;;;;;;3.01;77.14;100172.63;4988933;28;20125;-74
2023/11/14 01:17:35;;;;;;;0.68;0.40;;;;;;;3.03;76.95;100181.25;4989040;28;20500;-74
2023/11/14 01:20:02;;;;;;;0.60;0.50;;;;;;;3.03;76.89;100186.41;4989979;28;20126;-74
2023/11/14 01:22:29;;;;;;;0.95;0.45;;;;;;;3.04;76.83;100182.97;4987598;28;20081;-74
2023/11/14 01:24:57;;;;;;;0.73;0.40;;;;;;;3.02;77.14;100175.22;4990087;28;20101;-74
2023/11/14 01:27:25;;;;;;;0.80;0.40;;;;;;;3.04;77.14;100182.97;4989260;28;20053;-74
2023/11/14 01:29:51;;;;;;;0.65;0.38;;;;;;;3.05;77.28;100182.13;4989990;28;20051;-74
2023/11/14 01:32:18;;;;;;;0.88;0.60;;;;;;;3.05;77.17;100179.53;4989648;28;20050;-74
2023/11/14 01:34:46;;;;;;;0.70;0.40;;;;;;;2.98;77.45;100164.88;4988367;28;20047;-74
2023/11/14 01:37:13;;;;;;;0.63;0.35;;;;;;;3.06;77.13;100165.78;4992743;28;20133;-74
2023/11/14 01:39:44;;;;;;;1.27;0.30;;;;;;;3.06;77.43;100171.78;4990361;28;20515;-74
2023/11/14 01:42:13;;;;;;;0.40;0.30;;;;;;;3.07;77.17;100167.47;4991791;28;20042;-74
2023/11/14 01:44:39;;;;;;;1.13;0.47;;;;;;;3.08;77.10;100171.81;4993054;28;20047;-74
2023/11/14 01:47:07;;;;;;;0.63;0.35;;;;;;;3.08;77.27;100177.81;4993343;28;20042;-74
2023/11/14 01:49:34;;;;;;;0.40;0.30;;;;;;;3.06;77.44;100170.94;4990574;28;20499;-74
2023/11/14 01:52:01;;;;;;;0.30;0.25;;;;;;;3.10;77.42;100177.81;4991194;28;20136;-74
2023/11/14 01:54:28;;;;;;;0.73;0.43;;;;;;;3.10;77.71;100177.81;4990784;28;20054;-74
2023/11/14 01:56:55;;;;;;;0.30;0.20;;;;;;;3.11;77.41;100175.25;4992969;28;20771;-74
2023/11/14 01:59:24;;;;;;;0.85;0.30;;;;;;;3.11;77.48;100166.66;4990010;28;20046;-74
2023/11/14 02:01:51;;;;;;;0.70;0.30;;;;;;;3.12;77.31;100165.78;4990393;28;20053;-73
2023/11/14 02:04:22;;;;;;;0.60;0.30;;;;;;;3.12;77.62;100165.78;4993286;28;20410;-74
2023/11/14 02:06:49;;;;;;;0.90;0.50;;;;;;;3.15;77.81;100160.63;4988522;28;20073;-74
2023/11/14 02:09:15;;;;;;;0.70;0.28;;;;;;;3.15;77.61;100148.56;4992045;28;20050;-74
2023/11/14 02:11:44;;;;;;;0.30;0.20;;;;;;;3.15;77.49;100140.81;4991813;28;20050;-74
2023/11/14 02:14:12;;;;;;;1.00;0.30;;;;;;;3.17;77.72;100140.00;4990257;28;20089;-73
2023/11/14 02:16:47;;;;;;;0.40;0.30;;;;;;;3.15;77.61;100134.81;4991505;28;20043;-74
2023/11/14 02:19:14;;;;;;;0.38;0.30;;;;;;;3.14;77.88;100138.25;4992105;28;20125;-73
2023/11/14 02:21:42;;;;;;;1.45;0.30;;;;;;;3.18;77.77;100145.13;4986770;28;20042;-74
2023/11/14 02:24:15;;;;;;;0.47;0.40;;;;;;;3.19;77.76;100138.25;4990759;28;20061;-74
2023/11/14 02:26:45;;;;;;;2.45;0.50;;;;;;;3.20;78.06;100137.41;4986969;28;20070;-74
2023/11/14 02:29:15;;;;;;;0.38;0.28;;;;;;;3.20;78.01;100143.44;4990396;28;20038;-74
2023/11/14 02:31:42;;;;;;;0.30;0.20;;;;;;;3.20;77.89;100137.41;4989049;28;20047;-74
2023/11/14 02:34:10;;;;;;;0.28;0.20;;;;;;;3.22;77.91;100141.72;4988430;28;20048;-74
2023/11/14 02:36:37;;;;;;;0.25;0.20;;;;;;;3.22;77.91;100135.69;4992805;28;20066;-74
2023/11/14 02:39:04;;;;;;;0.45;0.30;;;;;;;3.22;78.07;100135.69;4990455;28;20049;-73
2023/11/14 02:41:31;;;;;;;0.30;0.20;;;;;;;3.23;78.13;100142.56;4993141;28;20454;-74
2023/11/14 02:44:00;;;;;;;0.35;0.20;;;;;;;3.23;78.05;100151.16;4990880;28;20057;-74
2023/11/14 02:46:27;;;;;;;1.48;0.30;;;;;;;3.24;78.23;100150.31;4990426;28;20054;-74
2023/11/14 02:48:53;;;;;;;0.30;0.30;;;;;;;3.25;78.05;100148.59;4991276;28;20045;-74
2023/11/14 02:51:20;;;;;;;0.30;0.30;;;;;;;3.26;78.25;100148.59;4990019;28;20038;-74
2023/11/14 02:53:49;;;;;;;0.60;0.30;;;;;;;3.26;78.15;100146.00;4987191;28;20414;-74
2023/11/14 02:56:16;;;;;;;0.77;0.40;;;;;;;3.24;78.21;100136.53;4990136;28;20057;-74
2023/11/14 02:58:43;;;;;;;0.30;0.20;;;;;;;3.28;78.55;100146.03;4991221;28;20046;-74
2023/11/14 03:01:11;;;;;;;0.30;0.30;;;;;;;3.29;78.22;100143.44;4989984;28;20048;-78
2023/11/14 03:03:38;;;;;;;0.50;0.30;;;;;;;3.30;78.42;100149.44;4993554;28;20476;-78
2023/11/14 03:06:05;;;;;;;0.50;0.30;;;;;;;3.30;78.42;100145.19;4984872;28;20047;-78
2023/11/14 03:08:32;;;;;;;2.53;0.30;;;;;;;3.32;78.54;100158.91;4992373;28;20064;-78
2023/11/14 03:11:01;;;;;;;2.65;0.30;;;;;;;3.34;78.46;100151.19;4996831;28;20094;-72
2023/11/14 03:13:28;;;;;;;2.50;0.40;;;;;;;3.34;78.51;100151.19;4989213;28;20066;-70
2023/11/14 03:15:54;;;;;;;1.60;0.40;;;;;;;3.34;78.82;100152.03;4988213;28;20046;-70
2023/11/14 03:18:23;;;;;;;0.75;0.50;;;;;;;3.35;78.75;100153.75;4985525;28;20058;-70
2023/11/14 03:20:50;;;;;;;0.77;0.40;;;;;;;3.37;78.57;100154.63;4990752;28;20380;-70
2023/11/14 03:23:16;;;;;;;2.53;0.65;;;;;;;3.34;78.69;100146.88;4974042;28;20058;-70
2023/11/14 03:25:43;;;;;;;1.40;0.55;;;;;;;3.40;78.79;100155.50;4990003;28;20046;-70
2023/11/14 03:28:10;;;;;;;0.60;0.40;;;;;;;3.41;78.71;100146.88;4986603;28;20046;-70
2023/11/14 03:30:37;;;;;;;1.30;0.50;;;;;;;3.42;78.65;100146.91;4988329;28;20058;-70
2023/11/14 03:33:04;;;;;;;0.63;0.40;;;;;;;3.43;78.97;100150.34;4991518;28;20052;-70
2023/11/14 03:35:32;;;;;;;0.88;0.60;;;;;;;3.43;78.86;100146.03;4991052;28;20047;-70
2023/11/14 03:37:59;;;;;;;1.95;0.65;;;;;;;3.45;78.86;100152.06;4988382;28;20414;-70
2023/11/14 03:40:26;;;;;;;0.90;0.50;;;;;;;3.47;78.71;100149.47;4987949;28;20057;-70
2023/11/14 03:42:53;;;;;;;0.95;0.38;;;;;;;3.47;78.75;100149.47;4989416;28;20053;-70
2023/11/14 03:45:19;;;;;;;1.38;0.40;;;;;;;3.48;78.78;100143.47;4990287;28;20046;-70
2023/11/14 03:47:46;;;;;;;1.50;0.52;;;;;;;3.49;78.75;100140.88;4989069;28;20521;-70
2023/11/14 03:50:13;;;;;;;1.05;0.40;;;;;;;3.47;78.86;100142.59;4987835;28;20043;-70
2023/11/14 03:52:42;;;;;;;0.70;0.40;;;;;;;3.50;78.79;100144.28;4988228;28;20050;-70
2023/11/14 03:55:09;;;;;;;0.60;0.40;;;;;;;3.49;78.75;100140.88;4988833;28;20043;-70
2023/11/14 03:57:36;;;;;;;1.63;0.50;;;;;;;3.50;78.88;100136.56;4985146;28;20422;-70
2023/11/14 04:00:04;;;;;;;0.75;0.40;;;;;;;3.51;78.85;100138.28;4986737;28;20066;-70
2023/11/14 04:02:31;;;;;;;1.30;0.50;;;;;;;3.49;78.96;100137.41;4989716;28;20570;-70
2023/11/14 04:04:58;;;;;;;0.98;0.60;;;;;;;3.50;78.90;100127.09;4990138;28;20050;-70
2023/11/14 04:07:25;;;;;;;3.30;0.82;;;;;;;3.50;78.89;100136.56;4986754;28;20057;-70
2023/11/14 04:09:53;;;;;;;2.08;0.93;;;;;;;3.50;79.01;100136.56;4989725;28;20503;-70
2023/11/14 04:12:20;;;;;;;2.83;1.00;;;;;;;3.45;79.05;100127.97;4986822;28;20121;-70
2023/11/14 04:14:47;;;;;;;3.65;1.20;;;;;;;3.51;79.06;100133.13;4986075;28;20141;-69
2023/11/14 04:17:14;;;;;;;3.65;1.10;;;;;;;3.53;78.75;100139.13;4986745;28;20042;-69
2023/11/14 04:19:41;;;;;;;4.88;1.73;;;;;;;3.52;79.18;100138.28;4989502;28;20057;-70
2023/11/14 04:22:08;;;;;;;4.18;1.67;;;;;;;3.53;78.90;100136.53;4985995;28;20047;-73
2023/11/14 04:24:34;;;;;;;2.85;1.38;;;;;;;3.52;79.08;100143.44;4985462;28;20495;-73
2023/11/14 04:27:03;;;;;;;2.22;1.65;;;;;;;3.52;79.02;100140.00;4988332;28;20061;-74
2023/11/14 04:29:30;;;;;;;2.70;1.92;;;;;;;3.53;79.02;100152.94;4986117;28;20058;-74
2023/11/14 04:31:57;;;;;;;1.75;1.55;;;;;;;3.54;79.00;100148.63;4987059;28;20407;-74
2023/11/14 04:34:24;;;;;;;3.83;1.58;;;;;;;3.54;79.05;100148.63;4990802;28;20451;-74
2023/11/14 04:36:50;;;;;;;4.07;1.80;;;;;;;3.56;79.18;100157.25;4989967;28;20053;-74
2023/11/14 04:39:17;;;;;;;1.27;0.95;;;;;;;3.46;78.91;100146.03;4990920;28;20051;-73
2023/11/14 04:41:44;;;;;;;2.10;1.30;;;;;;;3.56;78.96;100167.56;4988011;28;20050;-74
2023/11/14 04:44:13;;;;;;;3.40;1.35;;;;;;;3.57;78.75;100166.69;4988200;28;20057;-73
2023/11/14 04:46:43;;;;;;;1.10;0.90;;;;;;;3.56;78.74;100162.41;4984914;28;20048;-74
2023/11/14 04:49:10;;;;;;;2.42;1.23;;;;;;;3.55;78.75;100158.06;4989120;28;20046;-75
2023/11/14 04:51:37;;;;;;;4.95;1.65;;;;;;;3.55;78.69;100164.09;4988738;28;20487;-74
2023/11/14 04:54:04;;;;;;;2.13;1.00;;;;;;;3.56;78.61;100163.25;4988558;28;20049;-74
2023/11/14 04:56:31;;;;;;;1.92;1.55;;;;;;;3.57;78.55;100162.38;4988119;28;20136;-74
2023/11/14 04:58:58;;;;;;;4.40;0.90;;;;;;;3.58;78.73;100166.69;4986778;28;20077;-74
2023/11/14 05:01:27;;;;;;;1.65;0.70;;;;;;;3.58;78.39;100168.41;4986699;28;20646;-74
2023/11/14 05:03:53;;;;;;;2.05;0.80;;;;;;;3.57;78.46;100164.97;4987572;28;20691;-74
2023/11/14 05:06:20;;;;;;;1.88;0.80;;;;;;;3.58;78.24;100168.41;4987370;28;20541;-74
2023/11/14 05:08:47;;;;;;;1.73;0.85;;;;;;;3.58;78.19;100165.81;4987170;28;20514;-73
2023/11/14 05:11:14;;;;;;;1.35;0.65;;;;;;;3.58;78.30;100171.00;4988364;28;20050;-74
2023/11/14 05:13:41;;;;;;;1.23;0.63;;;;;;;3.57;78.36;100169.28;4990471;28;20052;-74
2023/11/14 05:16:10;;;;;;;3.55;0.77;;;;;;;3.59;78.17;100173.59;4991007;28;20055;-74
2023/11/14 05:18:38;;;;;;;2.10;0.60;;;;;;;3.61;78.25;100170.97;4991961;28;20058;-74
2023/11/14 05:21:05;;;;;;;5.55;1.25;;;;;;;3.62;78.23;100171.88;4991458;28;20497;-74
2023/11/14 05:23:32;;;;;;;2.90;0.95;;;;;;;3.62;77.98;100169.28;4988357;28;20054;-74
2023/11/14 05:25:59;;;;;;;1.38;1.00;;;;;;;3.63;78.16;100169.28;4991545;28;20050;-74
2023/11/14 05:28:26;;;;;;;1.23;0.50;;;;;;;3.62;78.07;100162.41;4989918;28;20053;-74
2023/11/14 05:30:53;;;;;;;2.05;0.70;;;;;;;3.65;77.90;100172.72;4991260;28;20510;-74
2023/11/14 05:33:20;;;;;;;0.75;0.50;;;;;;;3.65;77.88;100172.72;4989810;28;20061;-75
2023/11/14 05:35:48;;;;;;;0.63;0.50;;;;;;;3.66;77.79;100173.59;4992918;28;20047;-75
2023/11/14 05:38:15;;;;;;;1.55;0.40;;;;;;;3.64;77.86;100165.81;4988960;28;20134;-75
2023/11/14 05:40:42;;;;;;;0.80;0.50;;;;;;;3.66;77.89;100168.41;4994069;28;20190;-75
2023/11/14 05:43:09;;;;;;;1.23;0.50;;;;;;;3.65;77.66;100162.41;4989760;28;20047;-75
2023/11/14 05:45:36;;;;;;;2.72;0.43;;;;;;;3.66;77.96;100169.28;4991650;28;20054;-75
2023/11/14 05:48:04;;;;;;;1.05;0.50;;;;;;;3.65;77.92;100167.56;4986118;28;20423;-75
2023/11/14 05:50:31;;;;;;;1.50;0.60;;;;;;;3.67;77.79;100167.53;4990396;28;20042;-75
2023/11/14 05:52:59;;;;;;;2.38;0.50;;;;;;;3.66;77.87;100164.09;4990097;28;20058;-75
2023/11/14 05:55:26;;;;;;;1.15;0.50;;;;;;;3.66;77.61;100169.28;4991511;28;20058;-75
2023/11/14 05:57:53;;;;;;;0.95;0.40;;;;;;;3.65;77.42;100170.16;4989762;28;20050;-75
2023/11/14 06:00:20;;;;;;;2.15;0.57;;;;;;;3.65;77.33;100174.44;4992307;28;20046;-75
2023/11/14 06:02:47;;;;;;;0.70;0.40;;;;;;;3.63;77.33;100169.28;4990670;28;20046;-75
2023/11/14 06:05:14;;;;;;;1.42;0.47;;;;;;;3.63;77.18;100164.09;4993912;28;20070;-75
2023/11/14 06:07:41;;;;;;;1.42;0.60;;;;;;;3.64;77.30;100170.97;4991389;28;20045;-75
2023/11/14 06:10:10;;;;;;;0.80;0.50;;;;;;;3.64;77.25;100168.41;4990450;28;20462;-75
2023/11/14 06:12:39;;;;;;;2.55;0.50;;;;;;;3.64;77.33;100176.16;4987219;28;20355;-74
2023/11/14 06:15:08;;;;;;;2.03;0.50;;;;;;;3.64;77.25;100176.16;4992433;28;20097;-74
2023/11/14 06:17:35;;;;;;;3.10;0.40;;;;;;;3.64;77.16;100170.97;4991425;28;20487;-75
2023/11/14 06:20:05;;;;;;;0.60;0.30;;;;;;;3.64;76.92;100181.31;4991300;28;20097;-75
2023/11/14 06:22:31;;;;;;;0.80;0.40;;;;;;;3.62;76.91;100177.03;4988291;28;20687;-75
2023/11/14 06:24:58;;;;;;;8.25;2.67;;;;;;;3.61;76.81;100165.81;4989107;28;20058;-75
2023/11/14 06:27:27;;;;;;;0.60;0.32;;;;;;;3.60;76.61;100174.44;4988328;28;20046;-76
2023/11/14 06:29:55;;;;;;;0.47;0.40;;;;;;;3.60;76.78;100179.59;4990076;28;20043;-73
2023/11/14 06:32:22;;;;;;;0.60;0.43;;;;;;;3.60;76.61;100184.78;4990716;28;20093;-73
2023/11/14 06:34:49;;;;;;;0.50;0.30;;;;;;;3.61;76.67;100181.31;4988904;28;20061;-73
2023/11/14 06:37:16;;;;;;;0.40;0.30;;;;;;;3.61;76.59;100178.72;4987670;28;20061;-73
2023/11/14 06:39:44;;;;;;;0.90;0.20;;;;;;;3.51;76.46;100166.69;4987204;28;20042;-73
2023/11/14 06:42:10;;;;;;;1.25;0.30;;;;;;;3.59;76.44;100185.66;4989531;28;20046;-75
2023/11/14 06:44:39;;;;;;;1.10;0.73;;;;;;;3.56;75.92;100181.34;4991978;28;20057;-74
2023/11/14 06:47:06;;;;;;;2.05;0.30;;;;;;;3.57;76.51;100185.63;4986269;28;20052;-75
2023/11/14 06:49:32;;;;;;;0.55;0.20;;;;;;;3.56;76.30;100183.06;4989710;28;20054;-76
2023/11/14 06:51:59;;;;;;;0.90;0.30;;;;;;;3.56;76.31;100190.81;4990728;28;20046;-75
2023/11/14 06:54:26;;;;;;;0.40;0.30;;;;;;;3.56;76.17;100186.50;4989879;28;20046;-76
2023/11/14 06:56:53;;;;;;;0.20;0.15;;;;;;;3.56;76.41;100191.66;4991823;28;20069;-76
2023/11/14 06:59:20;;;;;;;1.58;0.25;;;;;;;3.56;76.16;100196.81;4991080;28;20046;-76
2023/11/14 07:01:52;;;;;;;0.20;0.20;;;;;;;3.54;76.18;100195.97;4992698;28;20042;-76
2023/11/14 07:04:19;;;;;;;0.30;0.20;;;;;;;3.54;76.29;100190.78;4990244;28;20046;-75
2023/11/14 07:06:46;;;;;;;0.85;0.52;;;;;;;3.55;76.06;100196.81;4991753;28;20574;-78
2023/11/14 07:09:15;;;;;;;0.57;0.32;;;;;;;3.54;76.16;100200.25;4983224;28;20496;-78
2023/11/14 07:11:42;;;;;;;0.20;0.17;;;;;;;3.48;76.13;100184.78;4987045;28;20100;-79
2023/11/14 07:14:09;;;;;;;1.10;0.13;;;;;;;3.53;76.22;100196.81;4986063;28;20708;-81
2023/11/14 07:16:36;;;;;;;0.20;0.10;;;;;;;3.54;76.23;100195.09;4995322;28;20450;-76
2023/11/14 07:19:04;;;;;;;3.53;0.20;;;;;;;3.53;76.12;100199.41;4991179;28;20065;-75
2023/11/14 07:21:32;;;;;;;0.20;0.17;;;;;;;3.54;75.91;100197.69;4988496;28;20038;-75
2023/11/14 07:23:59;;;;;;;0.40;0.10;;;;;;;3.53;75.99;100193.34;4984784;28;20121;-74
2023/11/14 07:26:26;;;;;;;3.70;3.33;;;;;;;3.55;75.79;100201.97;4987256;28;20065;-75
2023/11/14 07:28:53;;;;;;;2.08;0.35;;;;;;;3.53;76.01;100199.41;4986544;28;20058;-77
2023/11/14 07:31:20;;;;;;;1.38;0.10;;;;;;;3.53;75.54;100196.81;4986216;28;20058;-77
2023/11/14 07:33:47;;;;;;;0.30;0.10;;;;;;;3.53;75.58;100193.34;4987301;28;20047;-77
2023/11/14 07:36:15;;;;;;;0.73;0.10;;;;;;;3.50;75.68;100194.25;4990435;28;20499;-73
2023/11/14 07:38:44;;;;;;;1.38;0.40;;;;;;;3.51;75.55;100195.09;4986507;28;20043;-73
2023/11/14 07:41:12;;;;;;;1.63;0.20;;;;;;;3.51;75.79;100201.13;4988352;28;20050;-74
2023/11/14 07:43:39;;;;;;;1.45;0.22;;;;;;;3.51;75.80;100200.25;4988006;28;20137;-73
2023/11/14 07:46:07;;;;;;;0.85;0.13;;;;;;;3.51;75.85;100202.84;4986957;28;20050;-74
2023/11/14 07:48:34;;;;;;;0.65;0.40;;;;;;;3.50;75.63;100204.56;4987070;28;20038;-74
2023/11/14 07:51:02;;;;;;;0.13;0.10;;;;;;;3.49;75.74;100208.00;4988076;28;20056;-69
2023/11/14 07:53:30;;;;;;;0.43;0.10;;;;;;;3.51;75.54;100218.34;4985546;28;20054;-74
2023/11/14 07:55:57;;;;;;;0.40;0.20;;;;;;;3.48;75.51;100211.44;4988908;28;20050;-74
2023/11/14 07:58:25;;;;;;;0.90;0.20;;;;;;;3.48;75.48;100215.75;4982699;28;20058;-73
2023/11/14 08:00:52;;;;;;;0.30;0.20;;;;;;;3.48;75.35;100221.78;4989384;28;20053;-74
2023/11/14 08:03:19;;;;;;;0.75;0.20;;;;;;;3.48;75.13;100226.94;4987565;28;20050;-74
2023/11/14 08:05:46;;;;;;;0.28;0.10;;;;;;;3.48;75.53;100226.09;4985947;28;20051;-74
2023/11/14 08:08:13;;;;;;;0.32;0.15;;;;;;;3.49;75.33;100232.97;4988759;28;20704;-75
2023/11/14 08:10:42;;;;;;;2.10;0.10;;;;;;;3.51;75.50;100231.25;4987475;28;20050;-74
2023/11/14 08:13:09;;;;;;;2.35;0.10;;;;;;;3.51;75.43;100236.41;4987380;28;20042;-74
2023/11/14 08:15:37;;;;;;;0.28;0.13;;;;;;;3.49;75.18;100228.66;4988115;28;20065;-75
2023/11/14 08:18:05;;;;;;;1.55;0.10;;;;;;;3.51;74.96;100236.41;4987514;28;20488;-76
2023/11/14 08:20:32;;;;;;;0.55;0.20;;;;;;;3.51;74.99;100241.59;4987476;28;20046;-76
2023/11/14 08:23:00;;;;;;;0.15;0.10;;;;;;;3.50;74.43;100239.84;4989147;28;20511;-75
2023/11/14 08:25:27;;;;;;;0.25;0.10;;;;;;;3.50;75.06;100243.31;4985727;28;20085;-75
2023/11/14 08:27:56;;;;;;;0.20;0.10;;;;;;;3.49;75.13;100233.81;4986611;28;20120;-74
2023/11/14 08:30:27;;;;;;;0.20;0.10;;;;;;;3.39;74.93;100224.34;4988160;28;20038;-75
2023/11/14 08:32:54;;;;;;;1.30;0.20;;;;;;;3.50;74.74;100245.00;4988687;28;20090;-76
2023/11/14 08:35:24;;;;;;;0.63;0.10;;;;;;;3.48;74.70;100239.00;4987923;28;20051;-76
2023/11/14 08:37:52;;;;;;;0.30;0.10;;;;;;;3.49;74.85;100248.47;4988754;28;20137;-74
2023/11/14 08:40:19;;;;;;;0.82;0.03;;;;;;;3.49;74.90;100240.72;4985879;28;20051;-74
2023/11/14 08:42:49;;;;;;;0.10;0.10;;;;;;;3.48;74.87;100242.44;4989524;28;20046;-73
2023/11/14 08:45:17;;;;;;;0.10;0.10;;;;;;;3.50;74.63;100240.72;4989549;28;20556;-75
2023/11/14 08:47:44;;;;;;;1.48;0.10;;;;;;;3.49;75.32;100235.53;4991788;28;20050;-74
2023/11/14 08:50:12;;;;;;;0.13;0.10;;;;;;;3.51;75.10;100237.28;4992387;28;20039;-73
2023/11/14 08:52:39;;;;;;;0.38;0.20;;;;;;;3.52;74.90;100240.72;4988799;28;20567;-75
2023/11/14 08:55:07;;;;;;;0.20;0.10;;;;;;;3.53;74.82;100239.84;4993016;28;20050;-73
2023/11/14 08:57:34;;;;;;;0.73;0.10;;;;;;;3.51;75.07;100233.84;4990975;28;20122;-75
2023/11/14 09:00:03;;;;;;;0.30;0.10;;;;;;;3.54;74.99;100237.28;4989810;28;20038;-74
2023/11/14 09:02:32;;;;;;;0.30;0.20;;;;;;;3.54;74.91;100242.44;4990957;28;20054;-75
2023/11/14 09:04:58;;;;;;;0.30;0.20;;;;;;;3.55;74.94;100249.31;4990635;28;20050;-77
2023/11/14 09:07:25;;;;;;;0.20;0.10;;;;;;;3.52;74.85;100244.16;4989920;28;20137;-76
2023/11/14 09:09:52;;;;;;;0.30;0.17;;;;;;;3.57;74.90;100249.34;4990113;28;20058;-75
2023/11/14 09:12:19;;;;;;;0.88;0.30;;;;;;;3.57;74.74;100257.09;4990420;28;20054;-75
2023/11/14 09:14:46;;;;;;;0.43;0.20;;;;;;;3.54;74.77;100252.78;4988927;28;20043;-77
2023/11/14 09:17:13;;;;;;;0.10;0.10;;;;;;;3.59;74.84;100256.22;4995334;28;20046;-77
2023/11/14 09:19:42;;;;;;;0.45;0.20;;;;;;;3.56;74.83;100251.06;4993425;28;20050;-76
2023/11/14 09:22:08;;;;;;;5.10;0.10;;;;;;;3.61;74.71;100258.78;4988724;28;20054;-75
2023/11/14 09:24:35;;;;;;;0.70;0.10;;;;;;;3.62;75.08;100262.28;4989379;28;20050;-76
2023/11/14 09:27:03;;;;;;;0.28;0.10;;;;;;;3.63;74.95;100270.00;4990660;28;20083;-76
2023/11/14 09:29:30;;;;;;;0.20;0.20;;;;;;;3.65;74.94;100264.84;4991100;28;20055;-78
2023/11/14 09:31:57;;;;;;;1.55;0.10;;;;;;;3.66;74.62;100271.72;4987996;28;20388;-73
2023/11/14 09:34:24;;;;;;;1.20;0.10;;;;;;;3.67;74.91;100271.75;4989469;28;20050;-72
2023/11/14 09:36:52;;;;;;;0.20;0.10;;;;;;;3.69;74.65;100269.16;4987703;28;20053;-75
2023/11/14 09:39:20;;;;;;;1.33;0.10;;;;;;;3.68;74.32;100265.72;4987457;28;20050;-75
2023/11/14 09:41:47;;;;;;;0.10;0.10;;;;;;;3.69;74.36;100262.25;4989076;28;20049;-74
2023/11/14 09:44:14;;;;;;;0.73;0.10;;;;;;;3.70;73.76;100261.41;4993792;28;20054;-75
2023/11/14 09:46:42;;;;;;;2.55;0.10;;;;;;;3.69;74.08;100264.84;4987111;28;20495;-75
2023/11/14 09:49:09;;;;;;;0.35;0.10;;;;;;;3.70;74.19;100271.75;4991940;28;20061;-73
2023/11/14 09:51:38;;;;;;;0.17;0.08;;;;;;;3.72;73.97;100262.25;4983814;28;20053;-73
2023/11/14 09:54:07;;;;;;;0.98;0.10;;;;;;;3.73;74.24;100264.00;4992536;28;20058;-76
2023/11/14 09:56:34;;;;;;;0.30;0.10;;;;;;;3.74;74.16;100263.13;4989152;28;20542;-74
2023/11/14 09:59:02;;;;;;;0.40;0.10;;;;;;;3.75;73.70;100257.09;4990094;28;20062;-75
2023/11/14 10:01:29;;;;;;;0.52;0.10;;;;;;;3.76;73.80;100263.16;4986764;28;20043;-74
2023/11/14 10:03:56;;;;;;;0.90;0.40;;;;;;;3.76;73.92;100260.56;4989259;28;20046;-75
2023/11/14 10:06:23;;;;;;;2.92;0.17;;;;;;;3.77;73.69;100250.22;4987582;28;20474;-76
2023/11/14 10:08:51;;;;;;;0.10;0.10;;;;;;;3.79;73.80;100251.09;4990758;28;20053;-75
2023/11/14 10:11:19;;;;;;;1.08;1.00;;;;;;;3.80;73.96;100247.63;4989113;28;20042;-79
2023/11/14 10:13:47;;;;;;;0.35;0.20;;;;;;;3.81;73.85;100240.72;4988822;28;20133;-75
2023/11/14 10:16:19;;;;;;;0.98;0.10;;;;;;;3.82;73.57;100245.06;4992860;28;20055;-77
2023/11/14 10:18:47;;;;;;;1.00;0.10;;;;;;;3.83;74.07;100244.19;4990223;28;20446;-77
2023/11/14 10:21:27;;;;;;;0.00;0.00;;;;;;;3.84;73.92;100251.06;4991470;28;20051;-77
2023/11/14 10:23:55;;;;;;;0.22;0.10;;;;;;;3.81;73.44;100243.31;4987106;28;20522;-78
2023/11/14 10:26:24;;;;;;;0.20;0.10;;;;;;;3.83;73.49;100252.78;4988952;28;20055;-77
2023/11/14 10:28:52;;;;;;;0.10;0.10;;;;;;;3.83;73.70;100250.22;4987257;28;20050;-78
2023/11/14 10:31:34;;;;;;;0.93;0.10;;;;;;;3.85;73.71;100252.81;4992864;28;20443;-77
2023/11/14 10:34:01;;;;;;;0.20;0.00;;;;;;;3.85;73.64;100249.38;4993226;28;20046;-78
2023/11/14 10:36:27;;;;;;;0.80;0.10;;;;;;;3.86;73.47;100256.25;4988608;28;20054;-77
2023/11/14 10:39:05;;;;;;;0.30;0.10;;;;;;;3.85;73.08;100245.06;4992950;28;20529;-78
2023/11/14 10:41:34;;;;;;;0.43;0.10;;;;;;;3.83;73.02;100245.03;4977860;28;20050;-78
2023/11/14 10:44:08;;;;;;;0.98;0.10;;;;;;;3.82;73.07;100243.34;4989317;28;20559;-77
2023/11/14 10:46:35;;;;;;;0.00;0.00;;;;;;;3.81;73.25;100251.97;4990264;28;20730;-78
2023/11/14 10:49:03;;;;;;;0.20;0.10;;;;;;;3.82;73.18;100252.81;4985991;28;20464;-77
2023/11/14 10:51:34;;;;;;;0.43;0.10;;;;;;;3.82;73.20;100256.25;4987635;28;20182;-78
2023/11/14 10:54:05;;;;;;;0.10;0.00;;;;;;;3.80;73.37;100260.53;4988750;28;20042;-78
2023/11/14 10:56:36;;;;;;;0.35;0.10;;;;;;;3.80;73.21;100263.13;4989002;28;20074;-78
2023/11/14 10:59:04;;;;;;;0.20;0.10;;;;;;;3.73;73.17;100253.66;4991987;28;20053;-77
2023/11/14 11:01:35;;;;;;;0.10;0.10;;;;;;;3.81;72.99;100263.97;4988313;28;20042;-78
2023/11/14 11:04:02;;;;;;;0.68;0.10;;;;;;;3.72;72.73;100254.50;4991008;28;20148;-78
2023/11/14 11:06:29;;;;;;;0.10;0.05;;;;;;;3.77;73.05;100268.31;4983409;28;20406;-78
2023/11/14 11:08:57;;;;;;;1.95;0.10;;;;;;;3.76;73.07;100279.50;4985652;28;20054;-78
2023/11/14 11:11:29;;;;;;;0.10;0.00;;;;;;;3.76;73.10;100276.91;4987430;28;20050;-79
2023/11/14 11:13:58;;;;;;;0.25;0.10;;;;;;;3.72;72.87;100267.44;4985222;28;20050;-79
2023/11/14 11:16:49;;;;;;;0.45;0.20;;;;;;;3.76;72.90;100279.50;4988399;28;20101;-77
2023/11/14 11:19:25;;;;;;;0.10;0.00;;;;;;;3.77;72.76;100288.09;4969453;28;20075;-77
2023/11/14 11:21:59;;;;;;;0.60;0.20;;;;;;;3.76;72.76;100288.97;4987837;28;20054;-77
2023/11/14 11:24:27;;;;;;;0.20;0.10;;;;;;;3.75;72.78;100285.50;4987040;28;20054;-78
2023/11/14 11:27:40;;;;;;;0.80;0.10;;;;;;;3.76;73.29;100282.09;4988635;28;20053;-78
2023/11/14 11:30:12;;;;;;;1.65;0.20;;;;;;;3.75;72.96;100285.50;4988485;28;20521;-78
2023/11/14 11:32:40;;;;;;;1.08;0.20;;;;;;;3.75;72.76;100295.84;4990694;28;20487;-78
2023/11/14 11:35:26;;;;;;;0.50;0.10;;;;;;;3.77;72.96;100290.69;4992119;28;20755;-78
2023/11/14 11:37:54;;;;;;;3.40;0.00;;;;;;;3.77;73.07;100280.34;4985879;28;20527;-80